sensor_id;sensor_type;location;lat;lon;timestamp;P1;durP1;ratioP1;P2;durP2;ratioP2
140;SDS011;65;48.778;9.160;2024-02-21T00:00:02;5.15;;;2.00;;
140;SDS011;65;48.778;9.160;2024-02-21T00:02:48;5.20;;;2.30;;
140;SDS011;65;48.778;9.160;2024-02-21T00:05:34;4.63;;;1.85;;
140;SDS011;65;48.778;9.160;2024-02-21T00:08:19;6.60;;;1.85;;
140;SDS011;65;48.778;9.160;2024-02-21T00:11:06;6.78;;;1.75;;
140;SDS011;65;48.778;9.160;2024-02-21T00:13:52;6.43;;;1.80;;
140;SDS011;65;48.778;9.160;2024-02-21T00:16:38;7.15;;;2.05;;
140;SDS011;65;48.778;9.160;2024-02-21T00:19:24;4.40;;;1.90;;
140;SDS011;65;48.778;9.160;2024-02-21T00:22:10;2.67;;;1.60;;
140;SDS011;65;48.778;9.160;2024-02-21T00:24:55;4.70;;;2.42;;
140;SDS011;65;48.778;9.160;2024-02-21T00:27:41;3.80;;;1.67;;
140;SDS011;65;48.778;9.160;2024-02-21T00:30:27;4.88;;;2.03;;
140;SDS011;65;48.778;9.160;2024-02-21T00:33:13;3.40;;;1.83;;
140;SDS011;65;48.778;9.160;2024-02-21T00:35:59;6.95;;;1.80;;
140;SDS011;65;48.778;9.160;2024-02-21T00:38:45;6.30;;;2.03;;
140;SDS011;65;48.778;9.160;2024-02-21T00:41:30;5.32;;;1.90;;
140;SDS011;65;48.778;9.160;2024-02-21T00:44:16;5.10;;;2.00;;
140;SDS011;65;48.778;9.160;2024-02-21T00:47:02;4.72;;;1.88;;
140;SDS011;65;48.778;9.160;2024-02-21T00:49:48;5.80;;;1.88;;
140;SDS011;65;48.778;9.160;2024-02-21T00:52:34;6.68;;;2.10;;
140;SDS011;65;48.778;9.160;2024-02-21T00:55:20;5.00;;;2.03;;
140;SDS011;65;48.778;9.160;2024-02-21T00:58:05;5.70;;;2.28;;
140;SDS011;65;48.778;9.160;2024-02-21T01:00:51;4.63;;;2.08;;
140;SDS011;65;48.778;9.160;2024-02-21T01:03:39;3.97;;;1.90;;
140;SDS011;65;48.778;9.160;2024-02-21T01:06:25;4.32;;;1.90;;
140;SDS011;65;48.778;9.160;2024-02-21T01:09:11;4.03;;;1.65;;
140;SDS011;65;48.778;9.160;2024-02-21T01:11:56;4.22;;;2.00;;
140;SDS011;65;48.778;9.160;2024-02-21T01:14:42;5.35;;;2.10;;
140;SDS011;65;48.778;9.160;2024-02-21T01:17:28;7.82;;;2.28;;
140;SDS011;65;48.778;9.160;2024-02-21T01:20:14;5.13;;;1.92;;
140;SDS011;65;48.778;9.160;2024-02-21T01:22:59;12.23;;;2.47;;
140;SDS011;65;48.778;9.160;2024-02-21T01:25:45;7.18;;;2.17;;
140;SDS011;65;48.778;9.160;2024-02-21T01:28:31;6.38;;;2.80;;
140;SDS011;65;48.778;9.160;2024-02-21T01:31:17;3.17;;;1.65;;
140;SDS011;65;48.778;9.160;2024-02-21T01:34:03;7.20;;;1.92;;
140;SDS011;65;48.778;9.160;2024-02-21T01:36:48;3.63;;;1.58;;
140;SDS011;65;48.778;9.160;2024-02-21T01:39:34;14.65;;;2.30;;
140;SDS011;65;48.778;9.160;2024-02-21T01:42:20;3.35;;;1.88;;
140;SDS011;65;48.778;9.160;2024-02-21T01:45:06;4.82;;;1.52;;
140;SDS011;65;48.778;9.160;2024-02-21T01:47:52;7.30;;;2.08;;
140;SDS011;65;48.778;9.160;2024-02-21T01:50:38;5.00;;;1.70;;
140;SDS011;65;48.778;9.160;2024-02-21T01:53:29;5.70;;;1.92;;
140;SDS011;65;48.778;9.160;2024-02-21T01:56:16;6.10;;;1.77;;
140;SDS011;65;48.778;9.160;2024-02-21T01:59:02;3.58;;;1.67;;
140;SDS011;65;48.778;9.160;2024-02-21T02:01:48;3.67;;;1.70;;
140;SDS011;65;48.778;9.160;2024-02-21T02:04:37;2.42;;;1.38;;
140;SDS011;65;48.778;9.160;2024-02-21T02:07:24;3.00;;;1.60;;
140;SDS011;65;48.778;9.160;2024-02-21T02:10:09;5.00;;;1.70;;
140;SDS011;65;48.778;9.160;2024-02-21T02:12:55;5.93;;;1.83;;
140;SDS011;65;48.778;9.160;2024-02-21T02:15:42;6.65;;;1.60;;
140;SDS011;65;48.778;9.160;2024-02-21T02:18:32;6.60;;;1.85;;
140;SDS011;65;48.778;9.160;2024-02-21T02:21:27;5.25;;;2.00;;
140;SDS011;65;48.778;9.160;2024-02-21T02:24:15;5.60;;;1.67;;
140;SDS011;65;48.778;9.160;2024-02-21T02:27:01;7.20;;;1.35;;
140;SDS011;65;48.778;9.160;2024-02-21T02:29:47;6.75;;;1.58;;
140;SDS011;65;48.778;9.160;2024-02-21T02:32:32;3.97;;;1.88;;
140;SDS011;65;48.778;9.160;2024-02-21T02:35:18;6.35;;;2.03;;
140;SDS011;65;48.778;9.160;2024-02-21T02:38:04;3.38;;;1.48;;
140;SDS011;65;48.778;9.160;2024-02-21T02:40:50;4.10;;;1.60;;
140;SDS011;65;48.778;9.160;2024-02-21T02:43:36;5.80;;;1.33;;
140;SDS011;65;48.778;9.160;2024-02-21T02:46:22;6.03;;;1.77;;
140;SDS011;65;48.778;9.160;2024-02-21T02:49:08;4.32;;;1.70;;
140;SDS011;65;48.778;9.160;2024-02-21T02:51:54;5.60;;;2.30;;
140;SDS011;65;48.778;9.160;2024-02-21T02:54:40;3.90;;;1.77;;
140;SDS011;65;48.778;9.160;2024-02-21T02:57:25;2.45;;;1.33;;
140;SDS011;65;48.778;9.160;2024-02-21T03:00:12;4.80;;;1.73;;
140;SDS011;65;48.778;9.160;2024-02-21T03:02:58;4.22;;;2.10;;
140;SDS011;65;48.778;9.160;2024-02-21T03:05:44;4.68;;;1.67;;
140;SDS011;65;48.778;9.160;2024-02-21T03:08:31;5.60;;;2.30;;
140;SDS011;65;48.778;9.160;2024-02-21T03:11:18;4.00;;;1.38;;
140;SDS011;65;48.778;9.160;2024-02-21T03:14:03;8.27;;;1.83;;
140;SDS011;65;48.778;9.160;2024-02-21T03:16:51;4.22;;;1.95;;
140;SDS011;65;48.778;9.160;2024-02-21T03:19:37;5.25;;;1.75;;
140;SDS011;65;48.778;9.160;2024-02-21T03:22:22;5.10;;;2.08;;
140;SDS011;65;48.778;9.160;2024-02-21T03:25:08;6.68;;;1.80;;
140;SDS011;65;48.778;9.160;2024-02-21T03:27:56;2.60;;;1.42;;
140;SDS011;65;48.778;9.160;2024-02-21T03:30:41;4.05;;;1.77;;
140;SDS011;65;48.778;9.160;2024-02-21T03:33:27;3.67;;;1.60;;
140;SDS011;65;48.778;9.160;2024-02-21T03:36:13;2.97;;;1.50;;
140;SDS011;65;48.778;9.160;2024-02-21T03:39:00;3.60;;;1.60;;
140;SDS011;65;48.778;9.160;2024-02-21T03:41:45;9.88;;;1.80;;
140;SDS011;65;48.778;9.160;2024-02-21T03:44:32;6.22;;;1.45;;
140;SDS011;65;48.778;9.160;2024-02-21T03:47:18;3.70;;;1.73;;
140;SDS011;65;48.778;9.160;2024-02-21T03:50:04;4.20;;;1.85;;
140;SDS011;65;48.778;9.160;2024-02-21T03:52:50;4.13;;;1.88;;
140;SDS011;65;48.778;9.160;2024-02-21T03:55:36;6.68;;;1.63;;
140;SDS011;65;48.778;9.160;2024-02-21T03:58:22;4.40;;;1.90;;
140;SDS011;65;48.778;9.160;2024-02-21T04:01:07;3.63;;;1.85;;
140;SDS011;65;48.778;9.160;2024-02-21T04:03:53;3.33;;;1.67;;
140;SDS011;65;48.778;9.160;2024-02-21T04:06:45;4.45;;;1.60;;
140;SDS011;65;48.778;9.160;2024-02-21T04:09:32;4.35;;;2.05;;
140;SDS011;65;48.778;9.160;2024-02-21T04:12:18;3.60;;;1.52;;
140;SDS011;65;48.778;9.160;2024-02-21T04:15:04;3.83;;;1.58;;
140;SDS011;65;48.778;9.160;2024-02-21T04:17:51;6.32;;;1.90;;
140;SDS011;65;48.778;9.160;2024-02-21T04:20:38;3.53;;;1.55;;
140;SDS011;65;48.778;9.160;2024-02-21T04:23:24;9.68;;;1.48;;
140;SDS011;65;48.778;9.160;2024-02-21T04:26:09;2.78;;;1.40;;
140;SDS011;65;48.778;9.160;2024-02-21T04:28:55;2.90;;;1.20;;
140;SDS011;65;48.778;9.160;2024-02-21T04:31:41;1.92;;;1.38;;
140;SDS011;65;48.778;9.160;2024-02-21T04:34:27;4.78;;;1.88;;
140;SDS011;65;48.778;9.160;2024-02-21T04:37:13;10.98;;;1.90;;
140;SDS011;65;48.778;9.160;2024-02-21T04:39:58;3.95;;;1.35;;
140;SDS011;65;48.778;9.160;2024-02-21T04:42:44;2.92;;;1.58;;
140;SDS011;65;48.778;9.160;2024-02-21T04:45:30;4.03;;;1.83;;
140;SDS011;65;48.778;9.160;2024-02-21T04:48:16;5.47;;;1.60;;
140;SDS011;65;48.778;9.160;2024-02-21T04:51:02;4.72;;;2.78;;
140;SDS011;65;48.778;9.160;2024-02-21T04:53:47;4.10;;;1.60;;
140;SDS011;65;48.778;9.160;2024-02-21T04:56:34;3.72;;;1.50;;
140;SDS011;65;48.778;9.160;2024-02-21T04:59:19;5.50;;;1.60;;
140;SDS011;65;48.778;9.160;2024-02-21T05:02:05;8.75;;;1.70;;
140;SDS011;65;48.778;9.160;2024-02-21T05:04:52;5.07;;;2.00;;
140;SDS011;65;48.778;9.160;2024-02-21T05:07:38;3.22;;;1.67;;
140;SDS011;65;48.778;9.160;2024-02-21T05:10:23;4.32;;;1.70;;
140;SDS011;65;48.778;9.160;2024-02-21T05:13:09;2.97;;;1.63;;
140;SDS011;65;48.778;9.160;2024-02-21T05:15:55;2.15;;;1.10;;
140;SDS011;65;48.778;9.160;2024-02-21T05:18:41;3.13;;;1.70;;
140;SDS011;65;48.778;9.160;2024-02-21T05:21:28;4.88;;;1.40;;
140;SDS011;65;48.778;9.160;2024-02-21T05:24:13;4.63;;;1.65;;
140;SDS011;65;48.778;9.160;2024-02-21T05:26:59;3.78;;;1.70;;
140;SDS011;65;48.778;9.160;2024-02-21T05:29:45;1.83;;;1.25;;
140;SDS011;65;48.778;9.160;2024-02-21T05:32:30;3.50;;;1.27;;
140;SDS011;65;48.778;9.160;2024-02-21T05:35:16;3.53;;;1.70;;
140;SDS011;65;48.778;9.160;2024-02-21T05:38:02;4.47;;;1.73;;
140;SDS011;65;48.778;9.160;2024-02-21T05:40:52;2.65;;;1.23;;
140;SDS011;65;48.778;9.160;2024-02-21T05:43:37;3.42;;;1.17;;
140;SDS011;65;48.778;9.160;2024-02-21T05:46:23;3.22;;;1.80;;
140;SDS011;65;48.778;9.160;2024-02-21T05:49:09;5.25;;;1.55;;
140;SDS011;65;48.778;9.160;2024-02-21T05:51:55;2.17;;;1.13;;
140;SDS011;65;48.778;9.160;2024-02-21T05:54:41;3.95;;;1.25;;
140;SDS011;65;48.778;9.160;2024-02-21T05:57:27;4.00;;;1.48;;
140;SDS011;65;48.778;9.160;2024-02-21T06:00:12;10.25;;;1.73;;
140;SDS011;65;48.778;9.160;2024-02-21T06:02:59;3.10;;;1.33;;
140;SDS011;65;48.778;9.160;2024-02-21T06:05:45;4.65;;;1.40;;
140;SDS011;65;48.778;9.160;2024-02-21T06:08:30;6.63;;;1.58;;
140;SDS011;65;48.778;9.160;2024-02-21T06:11:16;2.10;;;1.20;;
140;SDS011;65;48.778;9.160;2024-02-21T06:14:02;5.43;;;1.20;;
140;SDS011;65;48.778;9.160;2024-02-21T06:16:48;3.95;;;1.52;;
140;SDS011;65;48.778;9.160;2024-02-21T06:19:33;2.33;;;1.30;;
140;SDS011;65;48.778;9.160;2024-02-21T06:22:19;2.42;;;1.25;;
140;SDS011;65;48.778;9.160;2024-02-21T06:25:05;6.68;;;2.10;;
140;SDS011;65;48.778;9.160;2024-02-21T06:27:51;4.43;;;1.58;;
140;SDS011;65;48.778;9.160;2024-02-21T06:30:36;3.50;;;1.52;;
140;SDS011;65;48.778;9.160;2024-02-21T06:33:22;4.90;;;2.03;;
140;SDS011;65;48.778;9.160;2024-02-21T06:36:10;5.50;;;1.58;;
140;SDS011;65;48.778;9.160;2024-02-21T06:38:55;4.65;;;1.42;;
140;SDS011;65;48.778;9.160;2024-02-21T06:41:41;4.30;;;1.73;;
140;SDS011;65;48.778;9.160;2024-02-21T06:44:27;8.70;;;1.75;;
140;SDS011;65;48.778;9.160;2024-02-21T06:47:13;7.43;;;2.10;;
140;SDS011;65;48.778;9.160;2024-02-21T06:49:59;4.13;;;1.55;;
140;SDS011;65;48.778;9.160;2024-02-21T06:52:45;3.55;;;1.80;;
140;SDS011;65;48.778;9.160;2024-02-21T06:55:31;7.18;;;1.98;;
140;SDS011;65;48.778;9.160;2024-02-21T06:58:16;2.92;;;1.40;;
140;SDS011;65;48.778;9.160;2024-02-21T07:01:02;3.60;;;1.50;;
140;SDS011;65;48.778;9.160;2024-02-21T07:03:48;2.30;;;1.13;;
140;SDS011;65;48.778;9.160;2024-02-21T07:06:34;5.60;;;1.80;;
140;SDS011;65;48.778;9.160;2024-02-21T07:09:19;3.45;;;1.15;;
140;SDS011;65;48.778;9.160;2024-02-21T07:12:05;5.88;;;2.00;;
140;SDS011;65;48.778;9.160;2024-02-21T07:14:51;3.35;;;1.27;;
140;SDS011;65;48.778;9.160;2024-02-21T07:17:37;6.82;;;1.73;;
140;SDS011;65;48.778;9.160;2024-02-21T07:20:23;2.78;;;1.20;;
140;SDS011;65;48.778;9.160;2024-02-21T07:23:08;4.50;;;1.55;;
140;SDS011;65;48.778;9.160;2024-02-21T07:25:54;3.97;;;1.45;;
140;SDS011;65;48.778;9.160;2024-02-21T07:28:40;1.88;;;1.10;;
140;SDS011;65;48.778;9.160;2024-02-21T07:31:26;15.73;;;2.13;;
140;SDS011;65;48.778;9.160;2024-02-21T07:34:11;6.18;;;1.55;;
140;SDS011;65;48.778;9.160;2024-02-21T07:36:57;2.53;;;1.40;;
140;SDS011;65;48.778;9.160;2024-02-21T07:39:43;4.32;;;1.50;;
140;SDS011;65;48.778;9.160;2024-02-21T07:42:29;5.00;;;1.63;;
140;SDS011;65;48.778;9.160;2024-02-21T07:45:14;5.35;;;1.50;;
140;SDS011;65;48.778;9.160;2024-02-21T07:48:00;7.90;;;1.33;;
140;SDS011;65;48.778;9.160;2024-02-21T07:50:46;5.63;;;1.65;;
140;SDS011;65;48.778;9.160;2024-02-21T07:53:32;3.88;;;1.40;;
140;SDS011;65;48.778;9.160;2024-02-21T07:56:18;2.67;;;1.20;;
140;SDS011;65;48.778;9.160;2024-02-21T07:59:03;4.70;;;1.33;;
140;SDS011;65;48.778;9.160;2024-02-21T08:01:49;3.15;;;1.42;;
140;SDS011;65;48.778;9.160;2024-02-21T08:04:35;3.85;;;1.23;;
140;SDS011;65;48.778;9.160;2024-02-21T08:07:21;4.72;;;1.67;;
140;SDS011;65;48.778;9.160;2024-02-21T08:10:07;3.53;;;1.58;;
140;SDS011;65;48.778;9.160;2024-02-21T08:12:53;7.70;;;1.63;;
140;SDS011;65;48.778;9.160;2024-02-21T08:15:45;3.97;;;1.50;;
140;SDS011;65;48.778;9.160;2024-02-21T08:18:31;1.80;;;1.10;;
140;SDS011;65;48.778;9.160;2024-02-21T08:21:17;5.45;;;2.30;;
140;SDS011;65;48.778;9.160;2024-02-21T08:24:02;4.78;;;1.38;;
140;SDS011;65;48.778;9.160;2024-02-21T08:26:48;3.67;;;1.45;;
140;SDS011;65;48.778;9.160;2024-02-21T08:29:34;9.35;;;1.70;;
140;SDS011;65;48.778;9.160;2024-02-21T08:32:20;4.53;;;1.55;;
140;SDS011;65;48.778;9.160;2024-02-21T08:35:06;3.70;;;1.40;;
140;SDS011;65;48.778;9.160;2024-02-21T08:37:52;5.18;;;1.75;;
140;SDS011;65;48.778;9.160;2024-02-21T08:40:38;4.40;;;1.48;;
140;SDS011;65;48.778;9.160;2024-02-21T08:43:36;5.65;;;1.83;;
140;SDS011;65;48.778;9.160;2024-02-21T08:46:22;3.75;;;1.50;;
140;SDS011;65;48.778;9.160;2024-02-21T08:52:41;7.28;;;1.67;;
140;SDS011;65;48.778;9.160;2024-02-21T08:55:27;8.50;;;2.08;;
140;SDS011;65;48.778;9.160;2024-02-21T08:58:13;6.18;;;1.65;;
140;SDS011;65;48.778;9.160;2024-02-21T09:01:00;11.07;;;2.22;;
140;SDS011;65;48.778;9.160;2024-02-21T09:03:46;4.78;;;1.70;;
140;SDS011;65;48.778;9.160;2024-02-21T09:06:32;6.18;;;1.75;;
140;SDS011;65;48.778;9.160;2024-02-21T09:09:18;4.80;;;1.75;;
140;SDS011;65;48.778;9.160;2024-02-21T09:12:06;6.32;;;2.08;;
140;SDS011;65;48.778;9.160;2024-02-21T09:14:52;5.28;;;1.58;;
140;SDS011;65;48.778;9.160;2024-02-21T09:17:38;4.55;;;1.65;;
140;SDS011;65;48.778;9.160;2024-02-21T09:20:24;5.10;;;2.03;;
140;SDS011;65;48.778;9.160;2024-02-21T09:23:10;3.47;;;1.83;;
140;SDS011;65;48.778;9.160;2024-02-21T09:25:57;5.18;;;1.77;;
140;SDS011;65;48.778;9.160;2024-02-21T09:28:43;4.05;;;1.58;;
140;SDS011;65;48.778;9.160;2024-02-21T09:31:32;5.30;;;1.70;;
140;SDS011;65;48.778;9.160;2024-02-21T09:34:17;4.85;;;1.60;;
140;SDS011;65;48.778;9.160;2024-02-21T09:37:03;3.25;;;1.52;;
140;SDS011;65;48.778;9.160;2024-02-21T09:39:49;3.40;;;1.48;;
140;SDS011;65;48.778;9.160;2024-02-21T09:42:38;4.60;;;1.30;;
140;SDS011;65;48.778;9.160;2024-02-21T09:45:24;4.78;;;1.38;;
140;SDS011;65;48.778;9.160;2024-02-21T09:51:18;3.08;;;1.25;;
140;SDS011;65;48.778;9.160;2024-02-21T09:54:05;4.35;;;1.15;;
140;SDS011;65;48.778;9.160;2024-02-21T09:56:53;5.18;;;1.70;;
140;SDS011;65;48.778;9.160;2024-02-21T09:59:38;3.03;;;1.33;;
140;SDS011;65;48.778;9.160;2024-02-21T10:02:26;8.50;;;1.60;;
140;SDS011;65;48.778;9.160;2024-02-21T10:05:12;2.20;;;1.55;;
140;SDS011;65;48.778;9.160;2024-02-21T10:07:58;4.68;;;1.63;;
140;SDS011;65;48.778;9.160;2024-02-21T10:10:45;4.30;;;1.60;;
140;SDS011;65;48.778;9.160;2024-02-21T10:13:31;1.90;;;1.25;;
140;SDS011;65;48.778;9.160;2024-02-21T10:16:17;6.28;;;1.52;;
140;SDS011;65;48.778;9.160;2024-02-21T10:19:03;2.40;;;1.25;;
140;SDS011;65;48.778;9.160;2024-02-21T10:22:01;2.65;;;1.23;;
140;SDS011;65;48.778;9.160;2024-02-21T10:24:49;2.33;;;1.25;;
140;SDS011;65;48.778;9.160;2024-02-21T10:27:34;4.07;;;1.48;;
140;SDS011;65;48.778;9.160;2024-02-21T10:30:21;5.75;;;1.17;;
140;SDS011;65;48.778;9.160;2024-02-21T10:33:07;3.53;;;1.23;;
140;SDS011;65;48.778;9.160;2024-02-21T10:35:53;4.32;;;1.75;;
140;SDS011;65;48.778;9.160;2024-02-21T10:38:39;4.50;;;1.27;;
140;SDS011;65;48.778;9.160;2024-02-21T10:41:25;3.40;;;0.95;;
140;SDS011;65;48.778;9.160;2024-02-21T10:44:13;4.32;;;1.40;;
140;SDS011;65;48.778;9.160;2024-02-21T10:47:01;3.15;;;1.38;;
140;SDS011;65;48.778;9.160;2024-02-21T10:49:59;3.08;;;1.23;;
140;SDS011;65;48.778;9.160;2024-02-21T10:55:56;3.38;;;1.30;;
140;SDS011;65;48.778;9.160;2024-02-21T10:58:48;7.20;;;1.55;;
140;SDS011;65;48.778;9.160;2024-02-21T11:01:35;4.20;;;1.40;;
140;SDS011;65;48.778;9.160;2024-02-21T11:04:21;4.70;;;1.60;;
140;SDS011;65;48.778;9.160;2024-02-21T11:07:07;7.82;;;1.15;;
140;SDS011;65;48.778;9.160;2024-02-21T11:09:54;2.45;;;1.23;;
140;SDS011;65;48.778;9.160;2024-02-21T11:12:40;4.90;;;1.65;;
140;SDS011;65;48.778;9.160;2024-02-21T11:15:26;5.10;;;1.33;;
140;SDS011;65;48.778;9.160;2024-02-21T11:18:22;2.88;;;1.27;;
140;SDS011;65;48.778;9.160;2024-02-21T11:21:08;4.03;;;1.58;;
140;SDS011;65;48.778;9.160;2024-02-21T11:23:54;3.95;;;1.30;;
140;SDS011;65;48.778;9.160;2024-02-21T11:26:42;3.10;;;1.15;;
140;SDS011;65;48.778;9.160;2024-02-21T11:29:28;4.18;;;1.15;;
140;SDS011;65;48.778;9.160;2024-02-21T11:32:16;1.58;;;0.90;;
140;SDS011;65;48.778;9.160;2024-02-21T11:35:04;2.42;;;1.33;;
140;SDS011;65;48.778;9.160;2024-02-21T11:37:50;2.83;;;1.35;;
140;SDS011;65;48.778;9.160;2024-02-21T11:40:38;3.63;;;1.40;;
140;SDS011;65;48.778;9.160;2024-02-21T11:43:25;2.80;;;1.30;;
140;SDS011;65;48.778;9.160;2024-02-21T11:46:11;6.55;;;1.50;;
140;SDS011;65;48.778;9.160;2024-02-21T11:48:59;3.63;;;1.40;;
140;SDS011;65;48.778;9.160;2024-02-21T11:51:47;3.80;;;1.70;;
140;SDS011;65;48.778;9.160;2024-02-21T11:54:34;1.20;;;0.77;;
140;SDS011;65;48.778;9.160;2024-02-21T11:57:20;3.78;;;1.10;;
140;SDS011;65;48.778;9.160;2024-02-21T12:00:16;3.50;;;1.25;;
140;SDS011;65;48.778;9.160;2024-02-21T12:03:04;2.85;;;1.13;;
140;SDS011;65;48.778;9.160;2024-02-21T12:05:50;2.65;;;0.90;;
140;SDS011;65;48.778;9.160;2024-02-21T12:08:42;4.22;;;1.88;;
140;SDS011;65;48.778;9.160;2024-02-21T12:11:29;3.83;;;1.20;;
140;SDS011;65;48.778;9.160;2024-02-21T12:14:18;2.08;;;0.90;;
140;SDS011;65;48.778;9.160;2024-02-21T12:17:03;2.30;;;1.00;;
140;SDS011;65;48.778;9.160;2024-02-21T12:19:50;1.92;;;0.93;;
140;SDS011;65;48.778;9.160;2024-02-21T12:22:36;4.90;;;1.45;;
140;SDS011;65;48.778;9.160;2024-02-21T12:25:22;2.90;;;1.05;;
140;SDS011;65;48.778;9.160;2024-02-21T12:28:08;3.08;;;1.30;;
140;SDS011;65;48.778;9.160;2024-02-21T12:30:54;2.67;;;1.10;;
140;SDS011;65;48.778;9.160;2024-02-21T12:33:40;1.75;;;0.95;;
140;SDS011;65;48.778;9.160;2024-02-21T12:36:26;2.38;;;1.13;;
140;SDS011;65;48.778;9.160;2024-02-21T12:39:11;2.97;;;1.08;;
140;SDS011;65;48.778;9.160;2024-02-21T12:41:57;3.78;;;0.90;;
140;SDS011;65;48.778;9.160;2024-02-21T12:44:43;2.55;;;1.00;;
140;SDS011;65;48.778;9.160;2024-02-21T12:47:29;2.28;;;1.38;;
140;SDS011;65;48.778;9.160;2024-02-21T12:50:14;1.50;;;0.80;;
140;SDS011;65;48.778;9.160;2024-02-21T12:53:00;2.03;;;1.10;;
140;SDS011;65;48.778;9.160;2024-02-21T12:55:50;1.50;;;0.80;;
140;SDS011;65;48.778;9.160;2024-02-21T12:58:36;5.95;;;1.00;;
140;SDS011;65;48.778;9.160;2024-02-21T13:01:21;4.60;;;1.70;;
140;SDS011;65;48.778;9.160;2024-02-21T13:04:07;4.05;;;1.65;;
140;SDS011;65;48.778;9.160;2024-02-21T13:06:53;3.17;;;1.20;;
140;SDS011;65;48.778;9.160;2024-02-21T13:09:39;1.77;;;0.95;;
140;SDS011;65;48.778;9.160;2024-02-21T13:12:25;1.80;;;0.85;;
140;SDS011;65;48.778;9.160;2024-02-21T13:15:13;3.17;;;1.02;;
140;SDS011;65;48.778;9.160;2024-02-21T13:17:58;2.35;;;1.10;;
140;SDS011;65;48.778;9.160;2024-02-21T13:20:44;2.97;;;1.10;;
140;SDS011;65;48.778;9.160;2024-02-21T13:23:30;1.70;;;0.85;;
140;SDS011;65;48.778;9.160;2024-02-21T13:26:16;1.80;;;0.80;;
140;SDS011;65;48.778;9.160;2024-02-21T13:29:01;2.85;;;1.10;;
140;SDS011;65;48.778;9.160;2024-02-21T13:31:49;2.85;;;1.20;;
140;SDS011;65;48.778;9.160;2024-02-21T13:34:35;4.72;;;1.38;;
140;SDS011;65;48.778;9.160;2024-02-21T13:37:21;3.65;;;1.05;;
140;SDS011;65;48.778;9.160;2024-02-21T13:40:07;0.88;;;0.80;;
140;SDS011;65;48.778;9.160;2024-02-21T13:42:56;2.13;;;1.05;;
140;SDS011;65;48.778;9.160;2024-02-21T13:45:45;2.83;;;0.77;;
140;SDS011;65;48.778;9.160;2024-02-21T13:48:41;1.92;;;1.02;;
140;SDS011;65;48.778;9.160;2024-02-21T13:51:27;2.40;;;1.13;;
140;SDS011;65;48.778;9.160;2024-02-21T13:54:13;2.70;;;1.08;;
140;SDS011;65;48.778;9.160;2024-02-21T13:57:02;1.27;;;0.80;;
140;SDS011;65;48.778;9.160;2024-02-21T13:59:48;2.90;;;0.68;;
140;SDS011;65;48.778;9.160;2024-02-21T14:02:34;1.63;;;0.77;;
140;SDS011;65;48.778;9.160;2024-02-21T14:05:20;2.25;;;0.93;;
140;SDS011;65;48.778;9.160;2024-02-21T14:08:06;4.60;;;1.27;;
140;SDS011;65;48.778;9.160;2024-02-21T14:10:52;3.50;;;1.42;;
140;SDS011;65;48.778;9.160;2024-02-21T14:13:41;3.92;;;0.77;;
140;SDS011;65;48.778;9.160;2024-02-21T14:16:27;0.70;;;0.70;;
140;SDS011;65;48.778;9.160;2024-02-21T14:19:13;1.85;;;0.82;;
140;SDS011;65;48.778;9.160;2024-02-21T14:22:01;2.15;;;1.00;;
140;SDS011;65;48.778;9.160;2024-02-21T14:24:47;2.40;;;0.88;;
140;SDS011;65;48.778;9.160;2024-02-21T14:27:33;0.70;;;0.60;;
140;SDS011;65;48.778;9.160;2024-02-21T14:30:21;1.83;;;0.88;;
140;SDS011;65;48.778;9.160;2024-02-21T14:33:07;1.48;;;0.88;;
140;SDS011;65;48.778;9.160;2024-02-21T14:35:53;2.05;;;0.70;;
140;SDS011;65;48.778;9.160;2024-02-21T14:38:39;2.55;;;0.90;;
140;SDS011;65;48.778;9.160;2024-02-21T14:41:25;1.67;;;0.80;;
140;SDS011;65;48.778;9.160;2024-02-21T14:44:13;0.88;;;0.57;;
140;SDS011;65;48.778;9.160;2024-02-21T14:46:59;0.68;;;0.55;;
140;SDS011;65;48.778;9.160;2024-02-21T14:49:45;1.95;;;0.80;;
140;SDS011;65;48.778;9.160;2024-02-21T14:52:31;1.73;;;0.50;;
140;SDS011;65;48.778;9.160;2024-02-21T14:55:18;5.45;;;0.60;;
140;SDS011;65;48.778;9.160;2024-02-21T14:58:07;1.45;;;0.68;;
140;SDS011;65;48.778;9.160;2024-02-21T15:00:53;1.63;;;0.80;;
140;SDS011;65;48.778;9.160;2024-02-21T15:03:39;1.25;;;0.80;;
140;SDS011;65;48.778;9.160;2024-02-21T15:06:25;2.60;;;0.70;;
140;SDS011;65;48.778;9.160;2024-02-21T15:09:11;1.60;;;0.65;;
140;SDS011;65;48.778;9.160;2024-02-21T15:11:57;1.98;;;0.95;;
140;SDS011;65;48.778;9.160;2024-02-21T15:14:42;1.60;;;0.75;;
140;SDS011;65;48.778;9.160;2024-02-21T15:17:28;1.10;;;0.73;;
140;SDS011;65;48.778;9.160;2024-02-21T15:20:14;2.58;;;1.05;;
140;SDS011;65;48.778;9.160;2024-02-21T15:23:00;2.30;;;1.15;;
140;SDS011;65;48.778;9.160;2024-02-21T15:25:50;1.10;;;0.65;;
140;SDS011;65;48.778;9.160;2024-02-21T15:28:36;1.02;;;0.63;;
140;SDS011;65;48.778;9.160;2024-02-21T15:31:22;2.55;;;1.00;;
140;SDS011;65;48.778;9.160;2024-02-21T15:34:08;2.83;;;1.15;;
140;SDS011;65;48.778;9.160;2024-02-21T15:36:54;5.35;;;1.10;;
140;SDS011;65;48.778;9.160;2024-02-21T15:39:39;5.57;;;1.08;;
140;SDS011;65;48.778;9.160;2024-02-21T15:42:25;1.52;;;0.95;;
140;SDS011;65;48.778;9.160;2024-02-21T15:45:11;2.97;;;1.02;;
140;SDS011;65;48.778;9.160;2024-02-21T15:47:56;1.48;;;1.00;;
140;SDS011;65;48.778;9.160;2024-02-21T15:50:42;1.77;;;1.10;;
140;SDS011;65;48.778;9.160;2024-02-21T15:53:28;2.53;;;1.20;;
140;SDS011;65;48.778;9.160;2024-02-21T15:56:14;5.30;;;1.33;;
140;SDS011;65;48.778;9.160;2024-02-21T15:58:59;3.28;;;1.25;;
140;SDS011;65;48.778;9.160;2024-02-21T16:01:45;2.08;;;1.10;;
140;SDS011;65;48.778;9.160;2024-02-21T16:04:31;5.38;;;1.30;;
140;SDS011;65;48.778;9.160;2024-02-21T16:07:17;4.38;;;1.50;;
140;SDS011;65;48.778;9.160;2024-02-21T16:10:04;2.53;;;1.30;;
140;SDS011;65;48.778;9.160;2024-02-21T16:12:51;2.25;;;1.15;;
140;SDS011;65;48.778;9.160;2024-02-21T16:15:36;3.28;;;1.02;;
140;SDS011;65;48.778;9.160;2024-02-21T16:18:22;2.95;;;1.30;;
140;SDS011;65;48.778;9.160;2024-02-21T16:21:09;1.42;;;1.00;;
140;SDS011;65;48.778;9.160;2024-02-21T16:23:54;2.67;;;1.30;;
140;SDS011;65;48.778;9.160;2024-02-21T16:26:40;2.35;;;1.30;;
140;SDS011;65;48.778;9.160;2024-02-21T16:29:27;2.28;;;1.05;;
140;SDS011;65;48.778;9.160;2024-02-21T16:32:13;6.22;;;1.30;;
140;SDS011;65;48.778;9.160;2024-02-21T16:34:59;4.28;;;0.98;;
140;SDS011;65;48.778;9.160;2024-02-21T16:37:45;2.22;;;1.30;;
140;SDS011;65;48.778;9.160;2024-02-21T16:40:32;1.65;;;1.02;;
140;SDS011;65;48.778;9.160;2024-02-21T16:43:18;3.58;;;1.50;;
140;SDS011;65;48.778;9.160;2024-02-21T16:46:04;5.72;;;1.58;;
140;SDS011;65;48.778;9.160;2024-02-21T16:48:50;3.78;;;1.15;;
140;SDS011;65;48.778;9.160;2024-02-21T16:51:35;3.50;;;1.50;;
140;SDS011;65;48.778;9.160;2024-02-21T16:54:22;3.28;;;1.70;;
140;SDS011;65;48.778;9.160;2024-02-21T16:57:10;5.25;;;1.30;;
140;SDS011;65;48.778;9.160;2024-02-21T16:59:56;4.38;;;1.50;;
140;SDS011;65;48.778;9.160;2024-02-21T17:02:42;3.45;;;1.50;;
140;SDS011;65;48.778;9.160;2024-02-21T17:05:28;3.28;;;1.50;;
140;SDS011;65;48.778;9.160;2024-02-21T17:08:15;1.55;;;1.23;;
140;SDS011;65;48.778;9.160;2024-02-21T17:11:01;1.83;;;1.30;;
140;SDS011;65;48.778;9.160;2024-02-21T17:13:47;1.70;;;1.10;;
140;SDS011;65;48.778;9.160;2024-02-21T17:16:32;2.88;;;1.60;;
140;SDS011;65;48.778;9.160;2024-02-21T17:19:18;1.63;;;1.10;;
140;SDS011;65;48.778;9.160;2024-02-21T17:22:04;2.45;;;1.27;;
140;SDS011;65;48.778;9.160;2024-02-21T17:24:49;3.30;;;1.60;;
140;SDS011;65;48.778;9.160;2024-02-21T17:27:36;3.90;;;2.22;;
140;SDS011;65;48.778;9.160;2024-02-21T17:30:22;2.45;;;1.40;;
140;SDS011;65;48.778;9.160;2024-02-21T17:33:08;3.08;;;1.58;;
140;SDS011;65;48.778;9.160;2024-02-21T17:35:53;3.22;;;1.30;;
140;SDS011;65;48.778;9.160;2024-02-21T17:38:40;5.03;;;1.70;;
140;SDS011;65;48.778;9.160;2024-02-21T17:41:26;3.50;;;1.70;;
140;SDS011;65;48.778;9.160;2024-02-21T17:44:11;2.42;;;1.30;;
140;SDS011;65;48.778;9.160;2024-02-21T17:46:57;3.50;;;1.70;;
140;SDS011;65;48.778;9.160;2024-02-21T17:49:43;3.08;;;1.42;;
140;SDS011;65;48.778;9.160;2024-02-21T17:52:29;3.25;;;1.63;;
140;SDS011;65;48.778;9.160;2024-02-21T17:55:16;2.97;;;1.55;;
140;SDS011;65;48.778;9.160;2024-02-21T17:58:01;3.72;;;1.65;;
140;SDS011;65;48.778;9.160;2024-02-21T18:00:47;4.45;;;1.52;;
140;SDS011;65;48.778;9.160;2024-02-21T18:03:33;2.65;;;1.40;;
140;SDS011;65;48.778;9.160;2024-02-21T18:06:19;2.72;;;1.35;;
140;SDS011;65;48.778;9.160;2024-02-21T18:09:04;2.65;;;1.48;;
140;SDS011;65;48.778;9.160;2024-02-21T18:11:50;4.00;;;1.52;;